Time;durP1;ratioP1;P1;durP2;ratioP2;P2;SDS_P1;SDS_P2;PMS_P1;PMS_P2;Temp;Humidity;BMP_temperature;BMP_pressure;BME280_temperature;BME280_humidity;BME280_pressure;Samples;Min_cycle;Max_cycle;Signal;HPM_P1;HPM_P2
2021/07/02 00:00:32;;;;;;;14.32;9.57;;;;;;;;;;5056104;28;20031;-78
2021/07/02 00:03:17;;;;;;;15.98;10.52;;;;;;;;;;5054749;28;20584;-79
2021/07/02 00:06:01;;;;;;;12.95;9.18;;;;;;;;;;5050200;28;20801;-78
2021/07/02 00:08:46;;;;;;;13.07;9.90;;;;;;;;;;5059661;28;20059;-78
2021/07/02 00:11:30;;;;;;;12.50;9.63;;;;;;;;;;5066084;28;20047;-78
2021/07/02 00:14:15;;;;;;;12.73;9.75;;;;;;;;;;5064600;28;20047;-79
2021/07/02 00:17:00;;;;;;;14.60;9.95;;;;;;;;;;5065147;28;20154;-78
2021/07/02 00:19:44;;;;;;;12.30;8.90;;;;;;;;;;5050989;28;20104;-78
2021/07/02 00:22:28;;;;;;;12.43;9.13;;;;;;;;;;5061397;28;20043;-79
2021/07/02 00:25:13;;;;;;;12.70;9.02;;;;;;;;;;5059047;28;20071;-78
2021/07/02 00:27:58;;;;;;;12.20;9.82;;;;;;;;;;5052065;28;20062;-78
2021/07/02 00:30:42;;;;;;;12.00;8.98;;;;;;;;;;5069577;28;20229;-78
2021/07/02 00:33:27;;;;;;;11.85;8.95;;;;;;;;;;5063885;28;20630;-79
2021/07/02 00:36:11;;;;;;;11.18;8.50;;;;;;;;;;5070687;28;20123;-78
2021/07/02 00:38:56;;;;;;;11.90;8.88;;;;;;;;;;5069597;28;20051;-77
2021/07/02 00:41:40;;;;;;;12.02;9.07;;;;;;;;;;5074618;28;20787;-77
2021/07/02 00:44:37;;;;;;;11.65;9.15;;;;;;;;;;5068249;28;20094;-77
2021/07/02 00:47:21;;;;;;;11.77;8.40;;;;;;;;;;5063030;28;20112;-78
2021/07/02 00:50:06;;;;;;;13.38;9.68;;;;;;;;;;5064137;28;20043;-78
2021/07/02 00:52:51;;;;;;;12.20;8.70;;;;;;;;;;5046842;28;20042;-77
2021/07/02 00:55:36;;;;;;;10.23;8.35;;;;;;;;;;5060274;28;20075;-77
2021/07/02 00:58:20;;;;;;;10.20;7.97;;;;;;;;;;5042190;28;20396;-79
2021/07/02 01:01:05;;;;;;;12.60;8.52;;;;;;;;;;5047295;28;20044;-77
2021/07/02 01:03:49;;;;;;;10.30;8.10;;;;;;;;;;5063043;28;20039;-77
2021/07/02 01:06:34;;;;;;;11.65;8.25;;;;;;;;;;5038823;28;20051;-79
2021/07/02 01:09:19;;;;;;;11.43;8.45;;;;;;;;;;5060821;28;20036;-78
2021/07/02 01:12:05;;;;;;;11.05;8.10;;;;;;;;;;5049296;28;20051;-79
2021/07/02 01:14:50;;;;;;;12.27;7.88;;;;;;;;;;5046341;28;20035;-78
2021/07/02 01:17:35;;;;;;;12.15;7.85;;;;;;;;;;5071684;28;20151;-77
2021/07/02 01:20:19;;;;;;;9.93;7.50;;;;;;;;;;5053960;28;20085;-78
2021/07/02 01:23:04;;;;;;;9.55;7.45;;;;;;;;;;5068936;28;20039;-78
2021/07/02 01:25:49;;;;;;;11.75;7.88;;;;;;;;;;5075582;28;20387;-78
2021/07/02 01:28:34;;;;;;;10.73;7.75;;;;;;;;;;5066627;28;20432;-79
2021/07/02 01:31:18;;;;;;;9.65;7.47;;;;;;;;;;5047290;28;20115;-78
2021/07/02 01:34:03;;;;;;;9.98;7.75;;;;;;;;;;5074027;28;20096;-78
2021/07/02 01:36:48;;;;;;;8.93;7.15;;;;;;;;;;5064501;28;20063;-78
2021/07/02 01:39:32;;;;;;;10.32;7.00;;;;;;;;;;5047704;28;20474;-78
2021/07/02 01:42:17;;;;;;;9.10;6.82;;;;;;;;;;5075309;28;20482;-79
2021/07/02 01:45:02;;;;;;;9.32;7.40;;;;;;;;;;5055369;28;20101;-78
2021/07/02 01:47:47;;;;;;;9.18;7.03;;;;;;;;;;5048550;28;20146;-79
2021/07/02 01:50:32;;;;;;;9.05;7.10;;;;;;;;;;5062253;28;20031;-78
2021/07/02 01:53:16;;;;;;;10.23;7.13;;;;;;;;;;5067761;28;20517;-78
2021/07/02 01:56:01;;;;;;;8.85;6.68;;;;;;;;;;5069234;28;20090;-78
2021/07/02 01:58:45;;;;;;;9.75;6.95;;;;;;;;;;5062501;28;20134;-78
2021/07/02 02:01:30;;;;;;;9.68;6.90;;;;;;;;;;5051065;28;20081;-78
2021/07/02 02:04:14;;;;;;;9.50;6.65;;;;;;;;;;5064661;28;20122;-78
2021/07/02 02:06:59;;;;;;;9.27;7.18;;;;;;;;;;5081555;28;20412;-77
2021/07/02 02:09:43;;;;;;;9.38;7.03;;;;;;;;;;5059717;28;20036;-77
2021/07/02 02:12:28;;;;;;;8.80;6.53;;;;;;;;;;5063319;28;20407;-77
2021/07/02 02:15:12;;;;;;;8.52;6.38;;;;;;;;;;5043919;28;20048;-77
2021/07/02 02:17:57;;;;;;;10.05;6.78;;;;;;;;;;5064633;28;20043;-78
2021/07/02 02:20:42;;;;;;;8.75;6.30;;;;;;;;;;5064987;28;20137;-78
2021/07/02 02:23:27;;;;;;;7.45;6.15;;;;;;;;;;5063679;28;20042;-78
2021/07/02 02:26:11;;;;;;;9.50;6.75;;;;;;;;;;5069044;28;20035;-78
2021/07/02 02:28:56;;;;;;;8.60;6.30;;;;;;;;;;5065892;28;20036;-77
2021/07/02 02:31:40;;;;;;;7.68;6.03;;;;;;;;;;5064875;28;20039;-78
2021/07/02 02:34:26;;;;;;;8.30;6.43;;;;;;;;;;5072868;28;20517;-77
2021/07/02 02:37:10;;;;;;;8.50;6.60;;;;;;;;;;5066950;28;20055;-77
2021/07/02 02:39:55;;;;;;;8.30;6.28;;;;;;;;;;5063447;28;20711;-77
2021/07/02 02:42:40;;;;;;;9.40;6.22;;;;;;;;;;5061146;28;20039;-78
2021/07/02 02:45:25;;;;;;;9.43;6.32;;;;;;;;;;5069143;28;20173;-78
2021/07/02 02:48:10;;;;;;;7.72;6.18;;;;;;;;;;5058480;28;20039;-77
2021/07/02 02:50:54;;;;;;;7.68;5.80;;;;;;;;;;5076339;28;20102;-78
2021/07/02 02:53:39;;;;;;;9.35;6.65;;;;;;;;;;5064043;28;20043;-78
2021/07/02 02:56:23;;;;;;;8.68;6.15;;;;;;;;;;5065481;28;20035;-78
2021/07/02 02:59:08;;;;;;;8.38;6.28;;;;;;;;;;5073275;28;20050;-77
2021/07/02 03:01:52;;;;;;;8.02;6.07;;;;;;;;;;5073958;28;20719;-77
2021/07/02 03:04:37;;;;;;;8.90;5.82;;;;;;;;;;5074242;28;20097;-77
2021/07/02 03:07:22;;;;;;;7.43;6.18;;;;;;;;;;5091102;28;20128;-77
2021/07/02 03:10:06;;;;;;;8.07;5.95;;;;;;;;;;5085080;28;20031;-77
2021/07/02 03:12:51;;;;;;;7.75;5.93;;;;;;;;;;5088338;28;20143;-77
2021/07/02 03:15:35;;;;;;;7.72;5.63;;;;;;;;;;5067791;28;20423;-78
2021/07/02 03:18:20;;;;;;;7.82;5.53;;;;;;;;;;5078637;28;20139;-77
2021/07/02 03:21:04;;;;;;;7.50;5.68;;;;;;;;;;5087855;28;20039;-77
2021/07/02 03:23:49;;;;;;;8.20;5.97;;;;;;;;;;5053089;28;20134;-77
2021/07/02 03:26:33;;;;;;;6.93;5.43;;;;;;;;;;5063617;28;20094;-77
2021/07/02 03:29:18;;;;;;;7.40;5.57;;;;;;;;;;5086172;28;20783;-77
2021/07/02 03:32:03;;;;;;;7.93;5.78;;;;;;;;;;5075357;28;20516;-78
2021/07/02 03:34:48;;;;;;;7.30;5.50;;;;;;;;;;5062104;28;20497;-77
2021/07/02 03:37:33;;;;;;;8.30;5.78;;;;;;;;;;5069138;28;20189;-78
2021/07/02 03:40:17;;;;;;;7.10;5.63;;;;;;;;;;5073468;28;20059;-78
2021/07/02 03:43:02;;;;;;;7.07;5.32;;;;;;;;;;5072523;28;20182;-78
2021/07/02 03:45:46;;;;;;;7.63;5.50;;;;;;;;;;5059152;28;20031;-77
2021/07/02 03:48:31;;;;;;;7.72;5.82;;;;;;;;;;5066380;28;20047;-78
2021/07/02 03:51:15;;;;;;;7.53;5.60;;;;;;;;;;5084416;28;20090;-78
2021/07/02 03:54:00;;;;;;;8.23;5.47;;;;;;;;;;5078937;28;20565;-77
2021/07/02 03:59:49;;;;;;;8.02;5.57;;;;;;;;;;5084000;28;20062;-77
2021/07/02 04:02:33;;;;;;;7.00;5.45;;;;;;;;;;5073715;28;20043;-77
2021/07/02 04:05:18;;;;;;;7.18;5.03;;;;;;;;;;5070618;28;20500;-77
2021/07/02 04:08:02;;;;;;;7.05;5.13;;;;;;;;;;5088931;28;20549;-78
2021/07/02 04:10:47;;;;;;;8.65;5.07;;;;;;;;;;5072254;28;20759;-77
2021/07/02 04:13:31;;;;;;;6.20;5.07;;;;;;;;;;5078180;28;20093;-77
2021/07/02 04:16:16;;;;;;;6.20;5.25;;;;;;;;;;5087463;28;20051;-77
2021/07/02 04:19:00;;;;;;;7.35;5.30;;;;;;;;;;5082813;28;20051;-78
2021/07/02 04:21:45;;;;;;;7.05;5.32;;;;;;;;;;5081543;28;20040;-78
2021/07/02 04:24:30;;;;;;;6.72;5.20;;;;;;;;;;5079556;28;20046;-78
2021/07/02 04:27:14;;;;;;;8.18;5.43;;;;;;;;;;5048511;28;20051;-77
2021/07/02 04:30:01;;;;;;;6.43;4.97;;;;;;;;;;5054894;28;20080;-78
2021/07/02 04:32:46;;;;;;;7.63;6.03;;;;;;;;;;5087451;28;20464;-77
2021/07/02 04:35:30;;;;;;;7.13;4.75;;;;;;;;;;5054548;28;20748;-78
2021/07/02 04:38:15;;;;;;;6.80;5.03;;;;;;;;;;5071146;28;20136;-77
2021/07/02 04:41:00;;;;;;;6.20;5.13;;;;;;;;;;5079832;28;20499;-78
2021/07/02 04:43:44;;;;;;;6.60;5.18;;;;;;;;;;5068325;28;20046;-78
2021/07/02 04:46:29;;;;;;;6.68;5.03;;;;;;;;;;5082671;28;20108;-77
2021/07/02 04:49:13;;;;;;;7.65;5.30;;;;;;;;;;5079029;28;20030;-78
2021/07/02 04:51:58;;;;;;;7.07;5.07;;;;;;;;;;5081561;28;20039;-78
2021/07/02 04:54:43;;;;;;;6.57;5.05;;;;;;;;;;5054688;28;20044;-78
2021/07/02 04:57:27;;;;;;;6.38;4.82;;;;;;;;;;5050946;28;20058;-78
2021/07/02 05:00:12;;;;;;;6.50;4.85;;;;;;;;;;5057752;28;20043;-78
2021/07/02 05:02:56;;;;;;;8.05;5.00;;;;;;;;;;5059834;28;20664;-79
2021/07/02 05:05:42;;;;;;;6.90;5.20;;;;;;;;;;5067572;28;20043;-78
2021/07/02 05:08:26;;;;;;;5.97;4.68;;;;;;;;;;5070722;28;20144;-78
2021/07/02 05:11:11;;;;;;;5.85;4.55;;;;;;;;;;5066735;28;20093;-78
2021/07/02 05:13:56;;;;;;;7.72;5.43;;;;;;;;;;5067219;28;20047;-78
2021/07/02 05:16:41;;;;;;;6.65;4.72;;;;;;;;;;5071081;28;20173;-78
2021/07/02 05:19:26;;;;;;;6.70;4.90;;;;;;;;;;5075166;28;20461;-77
2021/07/02 05:22:13;;;;;;;6.70;4.72;;;;;;;;;;5066548;28;20055;-78
2021/07/02 05:24:58;;;;;;;6.35;4.65;;;;;;;;;;5066781;28;20089;-78
2021/07/02 05:27:42;;;;;;;6.82;4.80;;;;;;;;;;5076696;28;20578;-78
2021/07/02 05:30:27;;;;;;;6.35;4.82;;;;;;;;;;5056403;28;20119;-78
2021/07/02 05:33:12;;;;;;;8.45;5.13;;;;;;;;;;5071306;28;20063;-78
2021/07/02 05:35:57;;;;;;;7.80;4.85;;;;;;;;;;5079000;28;20094;-78
2021/07/02 05:38:43;;;;;;;7.60;4.68;;;;;;;;;;5047337;28;20143;-78
2021/07/02 05:41:27;;;;;;;7.53;4.80;;;;;;;;;;5063182;28;20498;-77
2021/07/02 05:44:12;;;;;;;7.47;5.10;;;;;;;;;;5064433;28;20039;-77
2021/07/02 05:46:56;;;;;;;7.20;5.20;;;;;;;;;;5059721;28;20047;-78
2021/07/02 05:49:41;;;;;;;6.97;5.15;;;;;;;;;;5051876;28;20043;-79
2021/07/02 05:52:26;;;;;;;6.35;4.65;;;;;;;;;;5070515;28;20093;-79
2021/07/02 05:55:12;;;;;;;7.20;4.97;;;;;;;;;;5078972;28;20315;-78
2021/07/02 05:57:57;;;;;;;7.82;5.22;;;;;;;;;;5073531;28;20093;-78
2021/07/02 06:00:42;;;;;;;7.22;4.75;;;;;;;;;;5074351;28;20052;-78
2021/07/02 06:03:27;;;;;;;7.25;5.18;;;;;;;;;;5069948;28;20662;-77
2021/07/02 06:06:11;;;;;;;7.90;5.22;;;;;;;;;;5073655;28;20427;-78
2021/07/02 06:08:57;;;;;;;8.05;5.00;;;;;;;;;;5031648;28;20075;-78
2021/07/02 06:11:41;;;;;;;8.40;5.22;;;;;;;;;;5063419;28;20040;-77
2021/07/02 06:14:29;;;;;;;8.18;5.63;;;;;;;;;;5077470;28;20063;-78
2021/07/02 06:17:13;;;;;;;7.90;5.30;;;;;;;;;;5079110;28;20054;-78
2021/07/02 06:19:58;;;;;;;8.52;5.65;;;;;;;;;;5084406;28;20034;-77
2021/07/02 06:22:43;;;;;;;8.65;5.18;;;;;;;;;;5063708;28;20031;-78
2021/07/02 06:25:27;;;;;;;7.78;5.32;;;;;;;;;;5058634;28;20081;-78
2021/07/02 06:28:12;;;;;;;8.90;5.63;;;;;;;;;;5055160;28;20082;-79
2021/07/02 06:30:57;;;;;;;8.00;5.20;;;;;;;;;;5047711;28;20039;-78
2021/07/02 06:33:42;;;;;;;8.93;5.30;;;;;;;;;;5064622;28;20494;-77
2021/07/02 06:36:26;;;;;;;9.10;6.18;;;;;;;;;;5054064;28;20035;-78
2021/07/02 06:39:11;;;;;;;6.88;5.30;;;;;;;;;;5077213;28;20047;-78
2021/07/02 06:41:56;;;;;;;7.95;5.57;;;;;;;;;;5083203;28;20051;-78
2021/07/02 06:44:41;;;;;;;7.38;5.18;;;;;;;;;;5060841;28;20509;-77
2021/07/02 06:47:25;;;;;;;7.93;5.45;;;;;;;;;;5071707;28;20039;-77
2021/07/02 06:50:10;;;;;;;8.18;5.28;;;;;;;;;;5066737;28;20039;-78
2021/07/02 06:52:55;;;;;;;7.78;5.32;;;;;;;;;;5075416;28;20110;-78
2021/07/02 06:55:40;;;;;;;8.98;5.68;;;;;;;;;;5078512;28;20121;-78
2021/07/02 06:58:25;;;;;;;8.38;5.25;;;;;;;;;;5075393;28;20071;-77
2021/07/02 07:01:09;;;;;;;8.18;5.32;;;;;;;;;;5064382;28;20090;-78
2021/07/02 07:03:54;;;;;;;8.43;5.70;;;;;;;;;;5064263;28;20494;-77
2021/07/02 07:06:39;;;;;;;7.85;5.47;;;;;;;;;;5052899;28;20075;-78
2021/07/02 07:09:24;;;;;;;8.20;5.53;;;;;;;;;;5071848;28;20089;-78
2021/07/02 07:12:08;;;;;;;9.02;5.30;;;;;;;;;;5046399;28;20186;-78
2021/07/02 07:14:53;;;;;;;9.13;5.10;;;;;;;;;;5045135;28;20437;-79
2021/07/02 07:17:38;;;;;;;8.10;5.68;;;;;;;;;;5053462;28;20110;-78
2021/07/02 07:20:22;;;;;;;7.57;5.65;;;;;;;;;;5065502;28;20108;-78
2021/07/02 07:23:07;;;;;;;7.18;5.88;;;;;;;;;;5075788;28;20082;-78
2021/07/02 07:25:51;;;;;;;8.73;5.57;;;;;;;;;;5063678;28;20105;-78
2021/07/02 07:28:36;;;;;;;6.95;5.43;;;;;;;;;;5034670;28;20090;-78
2021/07/02 07:31:21;;;;;;;7.18;5.40;;;;;;;;;;5064346;28;20082;-78
2021/07/02 07:34:06;;;;;;;8.02;5.55;;;;;;;;;;5066296;28;20724;-78
2021/07/02 07:36:54;;;;;;;7.85;5.43;;;;;;;;;;5067192;28;20043;-78
2021/07/02 07:39:39;;;;;;;7.35;5.40;;;;;;;;;;5054534;28;20089;-78
2021/07/02 07:42:24;;;;;;;7.53;5.65;;;;;;;;;;5056816;28;20089;-78
2021/07/02 07:45:08;;;;;;;7.00;5.15;;;;;;;;;;5050342;28;20410;-78
2021/07/02 07:47:53;;;;;;;8.25;5.47;;;;;;;;;;5080280;28;20127;-78
2021/07/02 07:50:42;;;;;;;6.90;5.35;;;;;;;;;;5058215;28;20518;-78
2021/07/02 07:53:27;;;;;;;7.20;5.43;;;;;;;;;;5066811;28;20111;-78
2021/07/02 07:56:12;;;;;;;7.40;5.38;;;;;;;;;;5053233;28;20059;-78
2021/07/02 07:58:57;;;;;;;8.45;5.80;;;;;;;;;;5049763;28;20093;-78
2021/07/02 08:01:41;;;;;;;8.40;5.75;;;;;;;;;;5039152;28;20040;-78
2021/07/02 08:04:26;;;;;;;8.02;5.82;;;;;;;;;;5066410;28;20043;-78
2021/07/02 08:07:10;;;;;;;7.72;5.45;;;;;;;;;;5051896;28;20667;-78
2021/07/02 08:09:55;;;;;;;8.02;5.53;;;;;;;;;;5051852;28;20316;-78
2021/07/02 08:12:39;;;;;;;7.68;5.53;;;;;;;;;;5051744;28;20090;-78
2021/07/02 08:15:23;;;;;;;7.30;5.45;;;;;;;;;;5064646;28;20035;-78
2021/07/02 08:18:08;;;;;;;7.78;5.55;;;;;;;;;;5046678;28;20167;-78
2021/07/02 08:20:52;;;;;;;6.68;5.22;;;;;;;;;;5045637;28;20035;-78
2021/07/02 08:23:37;;;;;;;7.72;5.43;;;;;;;;;;5063933;28;20511;-78
2021/07/02 08:26:22;;;;;;;7.65;5.28;;;;;;;;;;5065673;28;20040;-78
2021/07/02 08:29:23;;;;;;;8.15;5.72;;;;;;;;;;5049797;28;20043;-78
2021/07/02 08:32:08;;;;;;;7.88;5.95;;;;;;;;;;5063392;28;20035;-78
2021/07/02 08:34:52;;;;;;;7.10;5.30;;;;;;;;;;5060134;28;20085;-78
2021/07/02 08:37:37;;;;;;;6.70;5.47;;;;;;;;;;5061999;28;20544;-78
2021/07/02 08:40:21;;;;;;;8.52;5.55;;;;;;;;;;5066145;28;20058;-79
2021/07/02 08:43:07;;;;;;;7.53;5.47;;;;;;;;;;5062821;28;20122;-78
2021/07/02 08:45:52;;;;;;;7.47;5.60;;;;;;;;;;5064081;28;20081;-78
2021/07/02 08:48:36;;;;;;;8.20;5.63;;;;;;;;;;5067338;28;20043;-78
2021/07/02 08:51:22;;;;;;;8.35;5.15;;;;;;;;;;5054293;28;20768;-78
2021/07/02 08:54:08;;;;;;;7.03;5.25;;;;;;;;;;5074484;28;20552;-78
2021/07/02 08:56:58;;;;;;;7.25;5.28;;;;;;;;;;5065342;28;20106;-78
2021/07/02 08:59:43;;;;;;;6.47;5.43;;;;;;;;;;5083721;28;20605;-78
2021/07/02 09:02:28;;;;;;;6.55;5.30;;;;;;;;;;5081954;28;20035;-78
2021/07/02 09:05:25;;;;;;;8.20;5.22;;;;;;;;;;5045354;28;20411;-78
2021/07/02 09:08:13;;;;;;;7.70;5.90;;;;;;;;;;5063685;28;20506;-78
2021/07/02 09:10:58;;;;;;;8.75;5.38;;;;;;;;;;5058365;28;20094;-79
2021/07/02 09:13:43;;;;;;;7.13;5.32;;;;;;;;;;5048184;28;20035;-77
2021/07/02 09:16:38;;;;;;;7.35;5.05;;;;;;;;;;5054783;28;20103;-76
2021/07/02 09:19:27;;;;;;;8.48;5.75;;;;;;;;;;5063100;28;20116;-77
2021/07/02 09:22:15;;;;;;;7.90;5.50;;;;;;;;;;5056993;28;20043;-77
2021/07/02 09:25:00;;;;;;;9.35;5.65;;;;;;;;;;5064851;28;20048;-77
2021/07/02 09:27:44;;;;;;;8.15;5.80;;;;;;;;;;5065449;28;21337;-78
2021/07/02 09:30:30;;;;;;;6.88;5.55;;;;;;;;;;5044497;28;20157;-78
2021/07/02 09:33:15;;;;;;;8.48;5.75;;;;;;;;;;5069575;28;20554;-77
2021/07/02 09:36:01;;;;;;;9.77;5.65;;;;;;;;;;5046042;28;20082;-78
2021/07/02 09:38:48;;;;;;;7.57;5.55;;;;;;;;;;5065293;28;20633;-78
2021/07/02 09:41:33;;;;;;;7.18;5.40;;;;;;;;;;5062365;28;20034;-78
2021/07/02 09:44:18;;;;;;;7.57;5.53;;;;;;;;;;5054209;28;20039;-78
2021/07/02 09:47:03;;;;;;;8.50;5.70;;;;;;;;;;5063230;28;20097;-78
2021/07/02 09:49:48;;;;;;;8.93;6.10;;;;;;;;;;5063649;28;20075;-78
2021/07/02 09:52:33;;;;;;;10.40;5.90;;;;;;;;;;5067013;28;20459;-78
2021/07/02 09:55:19;;;;;;;9.23;5.60;;;;;;;;;;5068184;28;20169;-78
2021/07/02 09:58:10;;;;;;;8.65;5.90;;;;;;;;;;5062657;28;20087;-78
2021/07/02 10:00:56;;;;;;;8.40;5.80;;;;;;;;;;5049406;28;20154;-78
2021/07/02 10:03:41;;;;;;;9.10;5.85;;;;;;;;;;5063849;28;20044;-77
2021/07/02 10:06:26;;;;;;;9.70;5.80;;;;;;;;;;5062564;28;21409;-77
2021/07/02 10:09:10;;;;;;;8.10;5.68;;;;;;;;;;5062180;28;20047;-77
2021/07/02 10:11:55;;;;;;;8.60;6.00;;;;;;;;;;5060738;28;20090;-77
2021/07/02 10:14:39;;;;;;;7.63;5.90;;;;;;;;;;5061554;28;20537;-78
2021/07/02 10:17:26;;;;;;;8.23;6.00;;;;;;;;;;5049084;28;20431;-77
2021/07/02 10:20:11;;;;;;;8.00;6.40;;;;;;;;;;5056814;28;20071;-78
2021/07/02 10:22:57;;;;;;;8.80;6.18;;;;;;;;;;5049571;28;20353;-79
2021/07/02 10:25:42;;;;;;;8.35;6.07;;;;;;;;;;5041428;28;20229;-79
2021/07/02 10:28:29;;;;;;;7.97;5.90;;;;;;;;;;5056706;28;20036;-78
2021/07/02 10:31:16;;;;;;;9.10;6.00;;;;;;;;;;5056683;28;20135;-78
2021/07/02 10:34:01;;;;;;;10.25;6.40;;;;;;;;;;5063528;28;20059;-77
2021/07/02 10:36:47;;;;;;;8.88;6.15;;;;;;;;;;5060772;28;20498;-76
2021/07/02 10:39:32;;;;;;;8.48;6.20;;;;;;;;;;5063363;28;20118;-76
2021/07/02 10:42:17;;;;;;;7.30;5.90;;;;;;;;;;5047225;28;20043;-77
2021/07/02 10:45:04;;;;;;;8.07;5.95;;;;;;;;;;5064875;28;20038;-77
2021/07/02 10:47:49;;;;;;;8.02;6.07;;;;;;;;;;5064379;28;20419;-78
2021/07/02 10:50:38;;;;;;;9.27;5.93;;;;;;;;;;5062660;28;20442;-77
2021/07/02 10:53:26;;;;;;;10.35;6.13;;;;;;;;;;5042191;28;20139;-77
2021/07/02 10:56:29;;;;;;;9.07;5.93;;;;;;;;;;5049406;28;20147;-77
2021/07/02 10:59:15;;;;;;;12.48;6.50;;;;;;;;;;5062408;28;20110;-76
2021/07/02 11:02:06;;;;;;;10.32;6.45;;;;;;;;;;5068928;28;20044;-78
2021/07/02 11:04:51;;;;;;;10.85;6.15;;;;;;;;;;5067276;28;20047;-76
2021/07/02 11:07:39;;;;;;;9.18;6.28;;;;;;;;;;5043032;28;20094;-76
2021/07/02 11:10:24;;;;;;;11.38;6.50;;;;;;;;;;5061274;28;20039;-77
2021/07/02 11:13:09;;;;;;;10.95;6.50;;;;;;;;;;5058885;28;20582;-76
2021/07/02 11:16:11;;;;;;;9.70;6.72;;;;;;;;;;5051196;28;20407;-76
2021/07/02 11:18:56;;;;;;;12.25;6.60;;;;;;;;;;5049277;28;20043;-76
2021/07/02 11:21:40;;;;;;;12.18;6.57;;;;;;;;;;5044394;28;20039;-76
2021/07/02 11:25:03;;;;;;;12.88;6.78;;;;;;;;;;5079213;28;20043;-77
2021/07/02 11:27:51;;;;;;;11.32;6.53;;;;;;;;;;5010922;28;20126;-77
2021/07/02 11:30:37;;;;;;;13.68;6.57;;;;;;;;;;4997100;28;20041;-77
2021/07/02 11:33:23;;;;;;;11.15;6.53;;;;;;;;;;5039793;28;20056;-77
2021/07/02 11:36:08;;;;;;;9.55;6.20;;;;;;;;;;5059935;28;20477;-77
2021/07/02 11:38:54;;;;;;;11.52;7.00;;;;;;;;;;5067796;28;20784;-78
2021/07/02 11:41:38;;;;;;;11.63;7.30;;;;;;;;;;5057620;28;20903;-76
2021/07/02 11:44:22;;;;;;;12.43;6.78;;;;;;;;;;5038131;28;20091;-77
2021/07/02 11:47:07;;;;;;;11.15;6.55;;;;;;;;;;5067406;28;20043;-77
2021/07/02 11:49:52;;;;;;;12.95;6.80;;;;;;;;;;5051567;28;20085;-77
2021/07/02 11:52:37;;;;;;;12.88;7.40;;;;;;;;;;5076537;28;20047;-77
2021/07/02 11:55:25;;;;;;;10.63;6.75;;;;;;;;;;5047366;28;20086;-77
2021/07/02 11:58:16;;;;;;;13.27;6.35;;;;;;;;;;5046498;28;20523;-77
2021/07/02 12:01:04;;;;;;;12.30;6.75;;;;;;;;;;5076840;28;20074;-77
2021/07/02 12:03:53;;;;;;;14.70;7.65;;;;;;;;;;5059479;28;20467;-79
2021/07/02 12:06:45;;;;;;;13.32;6.70;;;;;;;;;;5063364;28;20161;-76
2021/07/02 12:09:29;;;;;;;10.55;7.03;;;;;;;;;;5063769;28;20047;-76
2021/07/02 12:12:20;;;;;;;12.93;7.43;;;;;;;;;;5062869;28;21130;-75
2021/07/02 12:15:05;;;;;;;13.32;7.53;;;;;;;;;;5051248;28;20067;-75
2021/07/02 12:17:59;;;;;;;14.77;7.30;;;;;;;;;;5077832;28;20083;-76
2021/07/02 12:20:56;;;;;;;17.02;7.88;;;;;;;;;;5060757;28;20165;-76
2021/07/02 12:23:41;;;;;;;15.20;7.07;;;;;;;;;;5065311;28;20650;-81
2021/07/02 12:26:27;;;;;;;15.10;7.47;;;;;;;;;;5052398;28;20047;-81
2021/07/02 12:29:12;;;;;;;13.45;8.05;;;;;;;;;;5066596;28;20044;-76
2021/07/02 12:32:01;;;;;;;13.25;7.80;;;;;;;;;;5046860;28;20455;-78
2021/07/02 12:34:46;;;;;;;14.57;7.55;;;;;;;;;;5069918;28;20105;-76
2021/07/02 12:37:31;;;;;;;13.07;7.88;;;;;;;;;;5049533;28;20101;-77
2021/07/02 12:40:16;;;;;;;13.98;7.53;;;;;;;;;;5073987;28;20043;-78
2021/07/02 12:43:01;;;;;;;12.05;7.47;;;;;;;;;;5052763;28;20198;-78
2021/07/02 12:45:45;;;;;;;10.82;7.32;;;;;;;;;;5073806;28;20119;-77
2021/07/02 12:48:30;;;;;;;13.27;7.47;;;;;;;;;;5057824;28;20073;-77
2021/07/02 12:51:14;;;;;;;16.50;8.00;;;;;;;;;;5067363;28;20039;-78
2021/07/02 12:57:02;;;;;;;12.68;7.93;;;;;;;;;;5065733;28;20043;-78
2021/07/02 12:59:47;;;;;;;13.75;7.60;;;;;;;;;;5059809;28;20047;-78
2021/07/02 13:02:32;;;;;;;15.77;8.15;;;;;;;;;;5062609;28;20047;-79
2021/07/02 13:05:23;;;;;;;10.43;7.78;;;;;;;;;;5067951;28;20078;-78
2021/07/02 13:08:08;;;;;;;11.63;7.47;;;;;;;;;;5061796;28;20090;-79
2021/07/02 13:10:54;;;;;;;12.75;7.93;;;;;;;;;;5059661;28;20035;-79
2021/07/02 13:13:39;;;;;;;15.32;8.38;;;;;;;;;;5062323;28;20074;-78
2021/07/02 13:16:23;;;;;;;17.20;8.02;;;;;;;;;;5062262;28;20574;-77
2021/07/02 13:19:08;;;;;;;12.38;7.57;;;;;;;;;;5057788;28;20054;-77
2021/07/02 13:21:52;;;;;;;9.60;7.00;;;;;;;;;;5060951;28;20043;-76
2021/07/02 13:24:37;;;;;;;11.70;8.18;;;;;;;;;;5063011;28;20040;-78
2021/07/02 13:27:21;;;;;;;14.27;8.80;;;;;;;;;;5069368;28;20185;-77
2021/07/02 13:30:09;;;;;;;10.40;7.38;;;;;;;;;;5063418;28;20118;-78
2021/07/02 13:33:07;;;;;;;19.23;10.23;;;;;;;;;;5064724;28;20619;-77
2021/07/02 13:35:52;;;;;;;15.88;8.85;;;;;;;;;;5063726;28;20461;-78
2021/07/02 13:38:37;;;;;;;15.57;9.48;;;;;;;;;;5065063;28;20097;-79
2021/07/02 13:41:21;;;;;;;19.67;9.88;;;;;;;;;;5057062;28;20105;-79
2021/07/02 13:44:06;;;;;;;17.33;9.85;;;;;;;;;;5042664;28;20573;-79
2021/07/02 13:46:58;;;;;;;18.35;9.43;;;;;;;;;;5058547;28;20143;-78
2021/07/02 13:49:42;;;;;;;21.98;10.38;;;;;;;;;;5056944;28;20077;-79
2021/07/02 13:52:29;;;;;;;22.85;9.90;;;;;;;;;;5042564;28;20094;-80
2021/07/02 13:55:14;;;;;;;17.85;9.02;;;;;;;;;;5058358;28;20593;-81
2021/07/02 13:57:59;;;;;;;18.98;9.30;;;;;;;;;;5057922;28;20403;-81
2021/07/02 14:00:44;;;;;;;22.52;9.43;;;;;;;;;;5057013;28;20105;-81
2021/07/02 14:03:29;;;;;;;19.27;9.10;;;;;;;;;;5056217;28;20040;-82
2021/07/02 14:06:14;;;;;;;18.45;9.07;;;;;;;;;;5061836;28;20523;-81
2021/07/02 14:08:58;;;;;;;22.45;9.82;;;;;;;;;;5066106;28;20043;-82
2021/07/02 14:11:43;;;;;;;22.88;10.23;;;;;;;;;;5060687;28;20056;-85
2021/07/02 14:14:27;;;;;;;21.17;9.95;;;;;;;;;;5048422;28;20125;-81
2021/07/02 14:17:12;;;;;;;19.65;9.45;;;;;;;;;;5064328;28;20573;-80
2021/07/02 14:19:56;;;;;;;22.40;9.30;;;;;;;;;;5061998;28;20635;-78
2021/07/02 14:22:44;;;;;;;17.48;9.35;;;;;;;;;;5063020;28;20039;-79
2021/07/02 14:25:29;;;;;;;18.67;8.75;;;;;;;;;;5049974;28;20035;-78
2021/07/02 14:28:13;;;;;;;15.73;9.02;;;;;;;;;;5048654;28;20039;-78
2021/07/02 14:30:58;;;;;;;16.60;9.13;;;;;;;;;;5058606;28;20090;-78
2021/07/02 14:33:42;;;;;;;16.52;8.73;;;;;;;;;;5063798;28;20086;-78
2021/07/02 14:36:27;;;;;;;18.05;9.13;;;;;;;;;;5055472;28;20154;-78
2021/07/02 14:39:11;;;;;;;19.45;9.23;;;;;;;;;;5050003;28;20052;-78
2021/07/02 14:41:56;;;;;;;15.23;8.63;;;;;;;;;;5063590;28;20518;-78
2021/07/02 14:44:40;;;;;;;20.38;9.10;;;;;;;;;;5050278;28;20566;-78
2021/07/02 14:47:25;;;;;;;17.50;9.00;;;;;;;;;;5065184;28;20043;-79
2021/07/02 14:50:10;;;;;;;15.77;8.65;;;;;;;;;;5047697;28;20039;-78
2021/07/02 14:52:54;;;;;;;13.50;8.70;;;;;;;;;;5065602;28;20074;-79
2021/07/02 14:55:39;;;;;;;15.25;9.10;;;;;;;;;;5044346;28;20194;-78
2021/07/02 14:58:23;;;;;;;13.52;8.98;;;;;;;;;;5046640;28;20051;-78
2021/07/02 15:01:07;;;;;;;17.27;8.90;;;;;;;;;;5065641;28;20114;-79
2021/07/02 15:03:52;;;;;;;19.00;9.23;;;;;;;;;;5069805;28;20067;-79
2021/07/02 15:06:37;;;;;;;16.75;9.02;;;;;;;;;;5052639;28;20040;-78
2021/07/02 15:09:22;;;;;;;15.57;8.50;;;;;;;;;;5052606;28;20086;-79
2021/07/02 15:12:06;;;;;;;17.05;8.80;;;;;;;;;;5045946;28;20039;-79
2021/07/02 15:14:54;;;;;;;15.07;8.52;;;;;;;;;;5045487;28;20051;-78
2021/07/02 15:17:38;;;;;;;18.48;8.45;;;;;;;;;;5068476;28;20052;-78
2021/07/02 15:20:24;;;;;;;12.57;7.80;;;;;;;;;;5067223;28;20047;-78
2021/07/02 15:23:08;;;;;;;13.52;7.55;;;;;;;;;;5065308;28;20117;-78
2021/07/02 15:25:52;;;;;;;10.48;7.10;;;;;;;;;;5066353;28;20032;-78
2021/07/02 15:28:37;;;;;;;14.50;8.23;;;;;;;;;;5066476;28;20399;-79
2021/07/02 15:31:40;;;;;;;13.90;8.00;;;;;;;;;;5047084;28;20040;-78
2021/07/02 15:34:25;;;;;;;14.18;7.70;;;;;;;;;;5053640;28;20116;-79
2021/07/02 15:37:10;;;;;;;13.27;7.85;;;;;;;;;;5049111;28;20048;-79
2021/07/02 15:39:54;;;;;;;11.77;7.53;;;;;;;;;;5050442;28;20055;-78
2021/07/02 15:42:39;;;;;;;13.20;7.78;;;;;;;;;;5065994;28;20766;-78
2021/07/02 15:45:27;;;;;;;12.52;7.40;;;;;;;;;;5066125;28;20082;-78
2021/07/02 15:48:12;;;;;;;11.43;7.00;;;;;;;;;;5046963;28;20163;-79
2021/07/02 15:50:56;;;;;;;9.98;7.20;;;;;;;;;;5040786;28;20097;-78
2021/07/02 15:53:41;;;;;;;9.95;7.30;;;;;;;;;;5061482;28;20039;-78
2021/07/02 15:56:26;;;;;;;10.85;7.38;;;;;;;;;;5050942;28;20086;-79
2021/07/02 15:59:10;;;;;;;14.95;7.47;;;;;;;;;;5065440;28;20043;-78
2021/07/02 16:01:54;;;;;;;11.88;7.57;;;;;;;;;;5065367;28;20399;-78
2021/07/02 16:04:39;;;;;;;12.00;7.10;;;;;;;;;;5066605;28;20163;-79
2021/07/02 16:07:24;;;;;;;11.55;7.38;;;;;;;;;;5060608;28;20086;-79
2021/07/02 16:10:08;;;;;;;10.02;6.57;;;;;;;;;;5063967;28;20661;-78
2021/07/02 16:12:53;;;;;;;12.85;7.20;;;;;;;;;;5066355;28;20597;-78
2021/07/02 16:15:38;;;;;;;8.68;6.47;;;;;;;;;;5064905;28;20070;-78
2021/07/02 16:18:22;;;;;;;9.50;6.32;;;;;;;;;;5066102;28;20051;-78
2021/07/02 16:21:08;;;;;;;8.43;6.15;;;;;;;;;;5050981;28;20609;-78
2021/07/02 16:23:52;;;;;;;11.95;7.70;;;;;;;;;;5066179;28;20059;-78
2021/07/02 16:26:37;;;;;;;8.32;6.68;;;;;;;;;;5064050;28;20044;-78
2021/07/02 16:29:22;;;;;;;10.88;6.50;;;;;;;;;;5046754;28;20160;-78
2021/07/02 16:32:06;;;;;;;8.05;6.50;;;;;;;;;;5051846;28;20097;-79